createdAt,value
2018-07-25T00:02:08.901Z,20.40
2018-07-25T00:04:37.329Z,20.40
2018-07-25T00:07:05.816Z,20.30
2018-07-25T00:09:34.315Z,20.30
2018-07-25T00:12:02.712Z,20.20
2018-07-25T00:14:31.151Z,20.10
2018-07-25T00:16:59.564Z,20.10
2018-07-25T00:19:28.013Z,20.10
2018-07-25T00:21:56.452Z,20.10
2018-07-25T00:24:24.887Z,20.00
2018-07-25T00:26:53.296Z,20.00
2018-07-25T00:29:21.821Z,20.00
2018-07-25T00:31:50.252Z,20.00
2018-07-25T00:34:18.680Z,20.10
2018-07-25T00:36:47.095Z,20.10
2018-07-25T00:39:15.532Z,19.90
2018-07-25T00:41:43.999Z,19.80
2018-07-25T00:44:12.400Z,19.60
2018-07-25T00:46:40.822Z,19.60
2018-07-25T00:49:09.241Z,19.40
2018-07-25T00:54:05.812Z,19.20
2018-07-25T00:56:34.267Z,19.20
2018-07-25T00:59:02.704Z,19.20
2018-07-25T01:01:31.137Z,19.30
2018-07-25T01:03:59.569Z,19.20
2018-07-25T01:06:27.995Z,19.20
2018-07-25T01:08:56.442Z,19.20
2018-07-25T01:11:24.873Z,19.10
2018-07-25T01:13:53.288Z,19.10
2018-07-25T01:16:21.715Z,19.10
2018-07-25T01:18:50.140Z,19.10
2018-07-25T01:21:18.576Z,19.10
2018-07-25T01:23:46.984Z,19.10
2018-07-25T01:26:15.416Z,19.00
2018-07-25T01:28:43.867Z,19.00
2018-07-25T01:31:12.300Z,19.00
2018-07-25T01:33:40.708Z,19.00
2018-07-25T01:38:37.577Z,18.90
2018-07-25T01:41:06.009Z,18.80
2018-07-25T01:43:34.441Z,18.80
2018-07-25T01:46:02.868Z,18.80
2018-07-25T01:48:31.296Z,18.70
2018-07-25T01:50:59.751Z,18.80
2018-07-25T01:53:28.183Z,18.70
2018-07-25T01:55:56.593Z,18.70
2018-07-25T01:58:25.019Z,18.70
2018-07-25T02:00:53.425Z,18.70
2018-07-25T02:03:21.862Z,18.60
2018-07-25T02:05:50.271Z,18.50
2018-07-25T02:08:18.769Z,18.50
2018-07-25T02:10:47.193Z,18.50
2018-07-25T02:13:16.678Z,18.50
2018-07-25T02:15:45.721Z,18.50
2018-07-25T02:18:14.162Z,18.50
2018-07-25T02:20:42.596Z,18.40
2018-07-25T02:23:11.024Z,18.40
2018-07-25T02:25:39.428Z,18.40
2018-07-25T02:28:07.865Z,18.40
2018-07-25T02:30:36.260Z,18.40
2018-07-25T02:33:04.697Z,18.30
2018-07-25T02:35:33.132Z,18.30
2018-07-25T02:38:01.560Z,18.30
2018-07-25T02:40:30.012Z,18.30
2018-07-25T02:42:58.413Z,18.30
2018-07-25T02:45:30.333Z,18.30
2018-07-25T02:47:58.765Z,18.30
2018-07-25T02:50:27.198Z,18.30
2018-07-25T02:52:55.630Z,18.30
2018-07-25T02:55:24.073Z,18.20
2018-07-25T02:57:52.535Z,18.20
2018-07-25T03:00:20.984Z,18.00
2018-07-25T03:02:49.432Z,17.90
2018-07-25T03:05:17.865Z,17.80
2018-07-25T03:07:46.273Z,17.70
2018-07-25T03:10:14.724Z,17.60
2018-07-25T03:12:43.164Z,17.60
2018-07-25T03:15:11.587Z,17.60
2018-07-25T03:17:40.023Z,17.60
2018-07-25T03:20:08.528Z,17.60
2018-07-25T03:25:05.306Z,17.60
2018-07-25T03:27:33.724Z,17.50
2018-07-25T03:30:02.141Z,17.40
2018-07-25T03:32:30.583Z,17.30
2018-07-25T03:34:59.019Z,17.20
2018-07-25T03:37:27.516Z,17.10
2018-07-25T03:39:55.978Z,17.10
2018-07-25T03:42:24.437Z,17.10
2018-07-25T03:44:52.856Z,17.10
2018-07-25T03:47:21.315Z,17.00
2018-07-25T03:49:49.751Z,17.10
2018-07-25T03:52:18.196Z,17.10
2018-07-25T03:57:14.775Z,17.30
2018-07-25T03:59:43.220Z,17.40
2018-07-25T04:04:40.073Z,17.60
2018-07-25T04:07:08.521Z,17.60
2018-07-25T04:09:36.972Z,17.80
2018-07-25T04:12:05.585Z,17.90
2018-07-25T04:14:34.008Z,17.90
2018-07-25T04:17:02.491Z,18.00
2018-07-25T04:19:30.920Z,18.20
2018-07-25T04:21:59.340Z,18.30
2018-07-25T04:24:27.795Z,18.60
2018-07-25T04:26:56.213Z,18.80
2018-07-25T04:29:24.673Z,19.10
2018-07-25T04:31:53.102Z,19.30
2018-07-25T04:34:21.535Z,19.40
2018-07-25T04:36:49.961Z,19.40
2018-07-25T04:39:18.415Z,19.40
2018-07-25T04:41:46.844Z,19.40
2018-07-25T04:44:15.296Z,19.50
2018-07-25T04:46:43.822Z,19.50
2018-07-25T04:49:12.214Z,19.60
2018-07-25T04:51:40.663Z,19.80
2018-07-25T04:54:09.121Z,20.10
2018-07-25T04:56:37.556Z,20.50
2018-07-25T04:59:05.992Z,20.80
2018-07-25T05:04:02.546Z,21.60
2018-07-25T05:06:31.003Z,21.90
2018-07-25T05:08:59.449Z,22.20
2018-07-25T05:11:28.035Z,22.50
2018-07-25T05:13:56.464Z,22.70
2018-07-25T05:16:24.904Z,23.20
2018-07-25T05:18:53.335Z,23.70
2018-07-25T05:21:21.787Z,24.40
2018-07-25T05:23:50.229Z,25.10
2018-07-25T05:26:18.675Z,25.70
2018-07-25T05:28:47.107Z,26.40
2018-07-25T05:31:15.579Z,27.00
2018-07-25T05:33:44.029Z,27.40
2018-07-25T05:36:12.476Z,27.70
2018-07-25T05:38:40.900Z,27.90
2018-07-25T05:41:09.408Z,28.30
2018-07-25T05:43:37.852Z,28.80
2018-07-25T05:46:06.369Z,29.40
2018-07-25T05:48:35.033Z,29.90
2018-07-25T05:51:03.517Z,30.50
2018-07-25T05:53:32.255Z,31.00
2018-07-25T05:56:00.684Z,31.50
2018-07-25T05:58:29.135Z,31.80
2018-07-25T06:00:57.763Z,32.10
2018-07-25T06:03:26.274Z,32.50
2018-07-25T06:05:54.695Z,32.90
2018-07-25T06:08:23.119Z,33.20
2018-07-25T06:10:51.555Z,33.70
2018-07-25T06:13:20.020Z,34.10
2018-07-25T06:15:48.460Z,34.50
2018-07-25T06:18:16.912Z,34.70
2018-07-25T06:20:45.352Z,34.80
2018-07-25T06:23:14.008Z,34.90
2018-07-25T06:25:42.456Z,35.00
2018-07-25T06:28:10.909Z,35.10
2018-07-25T06:30:39.339Z,35.30
2018-07-25T06:33:07.800Z,35.30
2018-07-25T06:35:36.264Z,35.50
2018-07-25T06:38:04.798Z,35.60
2018-07-25T06:40:33.265Z,35.90
2018-07-25T06:43:01.739Z,36.20
2018-07-25T06:45:30.172Z,36.60
2018-07-25T06:47:58.628Z,36.70
2018-07-25T06:50:27.096Z,36.70
2018-07-25T06:52:55.613Z,36.70
2018-07-25T06:55:24.050Z,36.60
2018-07-25T06:57:52.604Z,36.50
2018-07-25T07:00:21.055Z,36.60
2018-07-25T07:02:49.515Z,36.50
2018-07-25T07:05:17.983Z,36.40
2018-07-25T07:07:46.436Z,36.40
2018-07-25T07:10:14.924Z,36.20
2018-07-25T07:12:43.413Z,35.60
2018-07-25T07:15:12.390Z,35.00
2018-07-25T07:17:41.657Z,34.60
2018-07-25T07:20:10.132Z,34.30
2018-07-25T07:22:38.584Z,34.30
2018-07-25T07:25:07.288Z,34.40
2018-07-25T07:30:03.977Z,34.20
2018-07-25T07:32:32.471Z,34.00
2018-07-25T07:35:00.931Z,33.80
2018-07-25T07:37:29.406Z,33.90
2018-07-25T07:39:57.847Z,34.10
2018-07-25T07:42:26.299Z,34.30
2018-07-25T07:44:54.736Z,34.30
2018-07-25T07:47:23.180Z,34.20
2018-07-25T07:49:51.635Z,34.10
2018-07-25T07:52:20.093Z,34.30
2018-07-25T07:54:48.553Z,34.50
2018-07-25T07:57:16.991Z,34.70
2018-07-25T07:59:45.444Z,34.90
2018-07-25T08:04:42.047Z,35.90
2018-07-25T08:07:10.477Z,36.40
2018-07-25T08:09:38.928Z,36.90
2018-07-25T08:12:07.361Z,37.10
2018-07-25T08:14:35.809Z,37.40
2018-07-25T08:17:04.259Z,37.20
2018-07-25T08:19:32.728Z,36.90
2018-07-25T08:22:01.156Z,36.70
2018-07-25T08:24:29.616Z,36.40
2018-07-25T08:26:58.060Z,36.30
2018-07-25T08:29:26.513Z,36.50
2018-07-25T08:31:54.940Z,36.90
2018-07-25T08:34:23.393Z,37.20
2018-07-25T08:36:51.837Z,37.20
2018-07-25T08:39:20.341Z,37.10
2018-07-25T08:41:48.788Z,36.90
2018-07-25T08:44:17.240Z,36.90
2018-07-25T08:46:45.674Z,37.00
2018-07-25T08:49:14.107Z,37.10
2018-07-25T08:51:42.585Z,37.20
2018-07-25T08:54:11.029Z,37.50
2018-07-25T08:56:39.448Z,37.80
2018-07-25T08:59:07.912Z,38.00
2018-07-25T09:01:36.332Z,38.10
2018-07-25T09:04:04.797Z,38.00
2018-07-25T09:06:33.234Z,38.20
2018-07-25T09:09:01.702Z,38.50
2018-07-25T09:11:35.105Z,38.70
2018-07-25T09:14:04.089Z,38.70
2018-07-25T09:16:32.695Z,38.50
2018-07-25T09:19:01.745Z,38.10
2018-07-25T09:21:30.139Z,38.00
2018-07-25T09:23:58.617Z,37.80
2018-07-25T09:26:27.080Z,37.40
2018-07-25T09:28:55.700Z,37.20
2018-07-25T09:31:30.613Z,36.90
2018-07-25T09:33:59.154Z,36.80
2018-07-25T09:36:27.538Z,37.20
2018-07-25T09:38:56.048Z,37.60
2018-07-25T09:41:24.510Z,37.70
2018-07-25T09:43:52.985Z,37.80
2018-07-25T09:46:21.437Z,38.30
2018-07-25T09:48:49.916Z,38.60
2018-07-25T09:51:18.356Z,38.70
2018-07-25T09:53:46.813Z,38.30
2018-07-25T09:56:15.262Z,38.20
2018-07-25T09:58:43.717Z,38.10
2018-07-25T10:01:12.170Z,38.00
2018-07-25T10:03:40.620Z,38.30
2018-07-25T10:06:09.071Z,38.60
2018-07-25T10:08:37.516Z,38.90
2018-07-25T10:11:06.135Z,38.90
2018-07-25T10:13:34.608Z,38.90
2018-07-25T10:16:03.240Z,38.90
2018-07-25T10:18:31.682Z,38.60
2018-07-25T10:21:00.155Z,38.60
2018-07-25T10:23:28.647Z,38.80
2018-07-25T10:25:57.116Z,39.10
2018-07-25T10:28:25.530Z,39.20
2018-07-25T10:30:53.992Z,39.10
2018-07-25T10:33:22.428Z,39.20
2018-07-25T10:35:50.901Z,39.10
2018-07-25T10:38:19.353Z,39.00
2018-07-25T10:40:47.833Z,38.90
2018-07-25T10:43:16.275Z,38.60
2018-07-25T10:45:44.779Z,38.00
2018-07-25T10:48:13.215Z,37.90
2018-07-25T10:50:41.690Z,37.70
2018-07-25T10:53:10.141Z,37.30
2018-07-25T10:55:38.660Z,37.20
2018-07-25T10:58:07.157Z,37.30
2018-07-25T11:00:35.631Z,37.50
2018-07-25T11:03:04.122Z,37.80
2018-07-25T11:05:32.594Z,37.60
2018-07-25T11:08:01.040Z,37.30
2018-07-25T11:10:29.548Z,37.40
2018-07-25T11:12:57.964Z,37.60
2018-07-25T11:15:26.460Z,38.10
2018-07-25T11:17:54.908Z,38.70
2018-07-25T11:20:23.368Z,39.30
2018-07-25T11:22:51.804Z,39.70
2018-07-25T11:25:20.267Z,39.70
2018-07-25T11:27:48.716Z,39.40
2018-07-25T11:30:17.169Z,38.90
2018-07-25T11:32:45.663Z,38.40
2018-07-25T11:35:14.076Z,38.40
2018-07-25T11:37:42.504Z,38.50
2018-07-25T11:40:10.956Z,38.70
2018-07-25T11:42:39.418Z,39.00
2018-07-25T11:45:07.880Z,38.90
2018-07-25T11:47:36.337Z,38.80
2018-07-25T11:50:04.931Z,37.90
2018-07-25T11:52:33.346Z,36.80
2018-07-25T11:55:01.834Z,36.20
2018-07-25T11:57:30.308Z,35.80
2018-07-25T11:59:58.763Z,36.30
2018-07-25T12:02:27.201Z,37.10
2018-07-25T12:04:55.648Z,37.80
2018-07-25T12:07:24.124Z,38.00
2018-07-25T12:09:52.560Z,38.20
2018-07-25T12:12:21.016Z,38.60
2018-07-25T12:14:49.504Z,38.20
2018-07-25T12:17:17.971Z,37.50
2018-07-25T12:19:46.411Z,36.90
2018-07-25T12:22:14.894Z,36.10
2018-07-25T12:24:43.357Z,35.50
2018-07-25T12:27:12.652Z,35.40
2018-07-25T12:29:41.120Z,36.10
2018-07-25T12:32:09.681Z,37.10
2018-07-25T12:34:38.053Z,37.80
2018-07-25T12:37:06.566Z,37.50
2018-07-25T12:39:35.024Z,37.10
2018-07-25T12:42:03.483Z,36.60
2018-07-25T12:44:31.928Z,36.00
2018-07-25T12:47:00.389Z,36.00
2018-07-25T12:49:28.840Z,36.30
2018-07-25T12:51:57.317Z,36.50
2018-07-25T12:54:25.773Z,36.70
2018-07-25T12:56:54.456Z,37.30
2018-07-25T12:59:22.931Z,37.70
2018-07-25T13:01:51.432Z,37.90
2018-07-25T13:04:19.843Z,37.80
2018-07-25T13:06:48.332Z,37.60
2018-07-25T13:09:17.021Z,37.10
2018-07-25T13:11:45.464Z,36.40
2018-07-25T13:14:13.914Z,35.70
2018-07-25T13:16:42.408Z,35.20
2018-07-25T13:19:10.888Z,34.90
2018-07-25T13:21:39.390Z,34.60
2018-07-25T13:24:07.900Z,34.60
2018-07-25T13:26:36.379Z,35.10
2018-07-25T13:29:04.837Z,35.80
2018-07-25T13:31:33.300Z,36.40
2018-07-25T13:34:01.761Z,36.90
2018-07-25T13:36:30.235Z,37.30
2018-07-25T13:38:58.692Z,37.40
2018-07-25T13:41:27.179Z,37.10
2018-07-25T13:43:55.631Z,37.00
2018-07-25T13:46:24.174Z,37.20
2018-07-25T13:48:52.545Z,37.30
2018-07-25T13:51:21.047Z,37.60
2018-07-25T13:53:49.544Z,38.00
2018-07-25T13:56:18.037Z,38.20
2018-07-25T13:58:46.501Z,38.40
2018-07-25T14:01:15.212Z,38.40
2018-07-25T14:03:43.666Z,38.40
2018-07-25T14:06:12.168Z,38.10
2018-07-25T14:08:40.691Z,37.70
2018-07-25T14:11:10.024Z,37.50
2018-07-25T14:13:38.483Z,37.50
2018-07-25T14:16:07.432Z,37.50
2018-07-25T14:18:35.895Z,37.40
2018-07-25T14:21:04.368Z,37.50
2018-07-25T14:23:32.939Z,37.50
2018-07-25T14:26:01.377Z,37.50
2018-07-25T14:28:29.962Z,37.50
2018-07-25T14:30:58.408Z,37.50
2018-07-25T14:33:26.867Z,37.50
2018-07-25T14:35:55.348Z,37.40
2018-07-25T14:38:23.812Z,37.20
2018-07-25T14:40:52.263Z,37.00
2018-07-25T14:43:20.797Z,36.50
2018-07-25T14:45:49.261Z,35.60
2018-07-25T14:48:17.735Z,34.90
2018-07-25T14:50:46.244Z,34.70
2018-07-25T14:53:14.744Z,34.80
2018-07-25T14:55:43.228Z,35.10
2018-07-25T14:58:11.739Z,35.20
2018-07-25T15:00:40.232Z,35.30
2018-07-25T15:03:08.735Z,35.30
2018-07-25T15:05:37.211Z,34.90
2018-07-25T15:08:06.430Z,34.50
2018-07-25T15:10:35.000Z,34.20
2018-07-25T15:13:03.550Z,34.00
2018-07-25T15:15:31.982Z,34.10
2018-07-25T15:18:00.480Z,34.50
2018-07-25T15:20:28.960Z,34.70
2018-07-25T15:22:57.416Z,34.90
2018-07-25T15:25:25.872Z,35.10
2018-07-25T15:27:54.354Z,35.20
2018-07-25T15:30:22.817Z,35.00
2018-07-25T15:32:51.341Z,34.50
2018-07-25T15:35:19.818Z,34.10
2018-07-25T15:37:48.311Z,33.80
2018-07-25T15:40:16.779Z,33.90
2018-07-25T15:42:45.291Z,34.00
2018-07-25T15:45:13.742Z,33.80
2018-07-25T15:47:42.236Z,33.60
2018-07-25T15:50:10.684Z,33.40
2018-07-25T15:52:39.144Z,33.50
2018-07-25T15:55:07.680Z,33.70
2018-07-25T15:57:36.168Z,33.90
2018-07-25T16:00:06.235Z,33.90
2018-07-25T16:02:34.752Z,34.00
2018-07-25T16:05:03.384Z,34.00
2018-07-25T16:07:31.916Z,34.00
2018-07-25T16:10:00.406Z,33.90
2018-07-25T16:12:28.863Z,33.60
2018-07-25T16:17:25.472Z,33.00
2018-07-25T16:19:53.995Z,33.00
2018-07-25T16:22:22.557Z,33.00
2018-07-25T16:24:51.027Z,33.20
2018-07-25T16:27:19.702Z,33.30
2018-07-25T16:29:48.211Z,33.30
2018-07-25T16:32:16.736Z,33.40
2018-07-25T16:34:46.209Z,33.40
2018-07-25T16:37:14.951Z,33.40
2018-07-25T16:39:43.557Z,33.40
2018-07-25T16:42:12.085Z,33.40
2018-07-25T16:44:40.605Z,33.40
2018-07-25T16:47:09.147Z,33.40
2018-07-25T16:49:37.643Z,33.40
2018-07-25T16:52:06.159Z,33.40
2018-07-25T16:54:35.303Z,33.30
2018-07-25T16:57:03.849Z,33.20
2018-07-25T16:59:32.416Z,33.20
2018-07-25T17:02:00.916Z,33.10
2018-07-25T17:04:29.384Z,33.10
2018-07-25T17:06:57.843Z,33.00
2018-07-25T17:09:26.339Z,32.80
2018-07-25T17:11:54.803Z,32.70
2018-07-25T17:14:23.305Z,32.70
2018-07-25T17:16:51.759Z,32.70
2018-07-25T17:19:20.260Z,32.70
2018-07-25T17:21:48.719Z,32.60
2018-07-25T17:24:17.200Z,32.60
2018-07-25T17:26:45.696Z,32.50
2018-07-25T17:31:42.292Z,32.10
2018-07-25T17:34:10.766Z,32.00
2018-07-25T17:36:39.219Z,31.80
2018-07-25T17:41:36.556Z,31.50
2018-07-25T17:44:05.055Z,31.40
2018-07-25T17:46:33.588Z,31.20
2018-07-25T17:49:02.080Z,31.00
2018-07-25T17:51:30.575Z,30.90
2018-07-25T17:53:59.035Z,30.70
2018-07-25T17:56:27.487Z,30.70
2018-07-25T17:58:55.984Z,30.50
2018-07-25T18:01:24.458Z,30.50
2018-07-25T18:06:21.440Z,30.20
2018-07-25T18:08:49.908Z,30.10
2018-07-25T18:13:52.056Z,29.80
2018-07-25T18:16:20.498Z,29.60
2018-07-25T18:18:48.981Z,29.50
2018-07-25T18:21:17.443Z,29.50
2018-07-25T18:26:14.057Z,29.40
2018-07-25T18:28:42.535Z,29.30
2018-07-25T18:31:10.992Z,29.10
2018-07-25T18:33:39.460Z,28.90
2018-07-25T18:36:07.947Z,28.80
2018-07-25T18:38:36.433Z,28.70
2018-07-25T18:41:04.908Z,28.50
2018-07-25T18:43:33.358Z,28.20
2018-07-25T18:46:01.836Z,27.90
2018-07-25T18:48:30.281Z,27.60
2018-07-25T18:50:58.740Z,27.50
2018-07-25T18:55:55.353Z,27.40
2018-07-25T18:58:23.831Z,27.40
2018-07-25T19:00:52.328Z,27.30
2018-07-25T19:03:20.786Z,27.30
2018-07-25T19:05:49.239Z,27.20
2018-07-25T19:08:17.660Z,27.20
2018-07-25T19:10:46.141Z,27.10
2018-07-25T19:13:19.879Z,27.00
2018-07-25T19:15:48.326Z,26.90
2018-07-25T19:18:16.826Z,26.60
2018-07-25T19:20:45.235Z,26.50
2018-07-25T19:23:13.704Z,26.30
2018-07-25T19:25:42.145Z,26.20
2018-07-25T19:28:10.580Z,26.10
2018-07-25T19:30:39.031Z,26.10
2018-07-25T19:33:07.485Z,26.10
2018-07-25T19:35:35.964Z,26.10
2018-07-25T19:38:04.416Z,26.00
2018-07-25T19:40:32.876Z,25.90
2018-07-25T19:43:01.305Z,25.80
2018-07-25T19:45:29.752Z,25.70
2018-07-25T19:47:58.174Z,25.70
2018-07-25T19:50:26.655Z,25.70
2018-07-25T19:52:55.090Z,25.70
2018-07-25T19:55:23.539Z,25.70
2018-07-25T19:57:51.965Z,25.60
2018-07-25T20:00:20.557Z,25.50
2018-07-25T20:02:48.971Z,25.50
2018-07-25T20:05:17.440Z,25.50
2018-07-25T20:07:45.883Z,25.50
2018-07-25T20:10:14.353Z,25.40
2018-07-25T20:12:42.934Z,25.20
2018-07-25T20:15:16.785Z,25.20
2018-07-25T20:17:45.255Z,25.10
2018-07-25T20:20:13.712Z,25.00
2018-07-25T20:22:42.139Z,24.90
2018-07-25T20:25:10.616Z,24.90
2018-07-25T20:27:39.045Z,24.90
2018-07-25T20:30:08.804Z,24.90
2018-07-25T20:32:37.478Z,24.90
2018-07-25T20:35:06.241Z,24.90
2018-07-25T20:37:35.051Z,24.90
2018-07-25T20:40:03.549Z,24.90
2018-07-25T20:42:31.992Z,24.90
2018-07-25T20:45:00.463Z,24.70
2018-07-25T20:47:28.947Z,24.60
2018-07-25T20:49:57.384Z,24.60
2018-07-25T20:52:25.829Z,24.50
2018-07-25T20:54:54.260Z,24.50
2018-07-25T20:57:22.707Z,24.40
2018-07-25T21:00:54.488Z,24.30
2018-07-25T21:03:22.902Z,24.30
2018-07-25T21:05:51.340Z,24.20
2018-07-25T21:08:19.756Z,24.10
2018-07-25T21:10:48.217Z,24.00
2018-07-25T21:13:16.647Z,23.90
2018-07-25T21:15:45.121Z,23.80
2018-07-25T21:18:13.561Z,23.70
2018-07-25T21:20:42.013Z,23.60
2018-07-25T21:23:10.436Z,23.60
2018-07-25T21:25:38.880Z,23.50
2018-07-25T21:28:07.300Z,23.40
2018-07-25T21:30:35.748Z,23.30
2018-07-25T21:33:04.184Z,23.20
2018-07-25T21:35:32.639Z,23.10
2018-07-25T21:38:01.064Z,23.00
2018-07-25T21:40:29.555Z,22.90
2018-07-25T21:42:57.993Z,22.90
2018-07-25T21:45:27.473Z,22.90
2018-07-25T21:47:56.179Z,22.90
2018-07-25T21:50:27.611Z,22.80
2018-07-25T21:52:56.080Z,22.70
2018-07-25T21:55:24.504Z,22.70
2018-07-25T21:57:52.964Z,22.50
2018-07-25T22:00:21.456Z,22.40
2018-07-25T22:02:49.899Z,22.40
2018-07-25T22:05:18.324Z,22.40
2018-07-25T22:07:47.024Z,22.40
2018-07-25T22:10:15.489Z,22.40
2018-07-25T22:12:43.952Z,22.40
2018-07-25T22:15:12.540Z,22.40
2018-07-25T22:20:11.247Z,22.40
2018-07-25T22:22:39.951Z,22.40
2018-07-25T22:25:09.229Z,22.30
2018-07-25T22:27:38.156Z,22.30
2018-07-25T22:30:07.011Z,22.20
2018-07-25T22:32:35.453Z,22.20
2018-07-25T22:35:03.931Z,22.20
2018-07-25T22:37:32.380Z,22.10
2018-07-25T22:40:00.799Z,22.10
2018-07-25T22:42:29.247Z,22.10
2018-07-25T22:44:57.680Z,22.10
2018-07-25T22:47:26.134Z,22.00
2018-07-25T22:49:54.564Z,21.90
2018-07-25T22:52:22.988Z,21.80
2018-07-25T22:54:51.437Z,21.60
2018-07-25T22:59:48.008Z,21.20
2018-07-25T23:02:16.467Z,21.10
2018-07-25T23:04:44.932Z,21.00
2018-07-25T23:07:13.365Z,21.00
2018-07-25T23:12:20.003Z,20.90
2018-07-25T23:14:48.448Z,20.70
2018-07-25T23:17:16.867Z,20.50
2018-07-25T23:19:45.354Z,20.50
2018-07-25T23:22:13.813Z,20.50
2018-07-25T23:24:42.256Z,20.70
2018-07-25T23:27:10.678Z,20.80
2018-07-25T23:29:39.159Z,20.90
2018-07-25T23:32:07.628Z,21.00
2018-07-25T23:34:36.100Z,21.00
2018-07-25T23:37:04.546Z,21.00
2018-07-25T23:39:32.999Z,21.00
2018-07-25T23:42:01.432Z,20.90
2018-07-25T23:44:29.971Z,20.90
2018-07-25T23:46:58.408Z,20.80
2018-07-25T23:49:26.828Z,20.90
2018-07-25T23:51:55.259Z,20.70
2018-07-25T23:54:23.675Z,20.40
2018-07-25T23:56:52.115Z,20.20
2018-07-25T23:59:20.593Z,20.00
